Time;durP1;ratioP1;P1;durP2;ratioP2;P2;SDS_P1;SDS_P2;PMS_P1;PMS_P2;Temp;Humidity;BMP_temperature;BMP_pressure;BME280_temperature;BME280_humidity;BME280_pressure;Samples;Min_cycle;Max_cycle;Signal;HPM_P1;HPM_P2
2023/05/30 00:01:42;;;;;;;2.67;2.03;;;;;;;18.48;57.99;96751.84;10529445;28;20036;-33
2023/05/30 00:06:43;;;;;;;2.28;1.67;;;;;;;18.38;57.33;96744.22;10525938;28;20399;-33
2023/05/30 00:11:44;;;;;;;2.65;1.90;;;;;;;18.28;57.53;96742.50;10533656;28;20086;-34
2023/05/30 00:16:44;;;;;;;2.10;1.90;;;;;;;18.24;57.69;96746.69;10527703;28;20130;-34
2023/05/30 00:21:45;;;;;;;1.63;1.45;;;;;;;18.22;57.55;96743.31;10533655;28;20040;-34
2023/05/30 00:26:46;;;;;;;2.10;1.90;;;;;;;18.20;57.73;96728.97;10525767;28;20036;-33
2023/05/30 00:31:46;;;;;;;2.28;2.03;;;;;;;18.18;57.66;96736.53;10533313;28;20046;-34
2023/05/30 00:36:47;;;;;;;2.50;2.30;;;;;;;18.17;57.57;96739.09;10530446;28;20101;-33
2023/05/30 00:41:47;;;;;;;2.33;2.13;;;;;;;18.16;57.48;96738.25;10532855;28;20044;-34
2023/05/30 00:46:49;;;;;;;2.20;1.83;;;;;;;18.16;57.49;96732.34;10528688;28;20305;-33
2023/05/30 00:51:50;;;;;;;2.60;2.15;;;;;;;18.45;57.08;96731.56;10531624;28;20080;-33
2023/05/30 00:56:51;;;;;;;1.90;1.70;;;;;;;18.60;56.13;96730.72;10530915;28;20550;-34
2023/05/30 01:01:53;;;;;;;2.58;2.22;;;;;;;18.46;57.19;96740.00;10531785;28;20056;-34
2023/05/30 01:06:55;;;;;;;2.25;2.03;;;;;;;18.34;56.83;96735.75;10532110;28;20222;-32
2023/05/30 01:12:14;;;;;;;2.72;1.98;;;;;;;18.22;57.39;96733.19;10525492;28;20020;-33
2023/05/30 01:17:26;;;;;;;2.83;1.83;;;;;;;18.20;57.38;96739.09;10530609;28;20785;-33
2023/05/30 01:22:49;;;;;;;3.13;2.20;;;;;;;18.15;57.20;96730.66;10526185;28;20397;-32
2023/05/30 01:27:59;;;;;;;2.35;2.15;;;;;;;18.16;57.07;96747.56;10538285;28;20522;-33
2023/05/30 01:33:01;;;;;;;2.50;2.30;;;;;;;18.14;57.12;96744.16;10534720;28;20032;-33
2023/05/30 01:38:01;;;;;;;3.22;2.20;;;;;;;18.11;57.00;96750.06;10535024;28;20028;-33
2023/05/30 01:43:11;;;;;;;2.40;2.13;;;;;;;18.13;57.17;96762.72;10539356;28;20043;-34
2023/05/30 01:48:21;;;;;;;2.63;2.28;;;;;;;18.15;57.28;96766.97;10531772;28;20501;-33
2023/05/30 01:53:26;;;;;;;2.35;2.15;;;;;;;18.40;56.97;96773.78;10537738;28;20195;-33
2023/05/30 01:58:28;;;;;;;2.95;2.40;;;;;;;18.52;55.78;96763.69;10536000;28;20193;-33
2023/05/30 02:03:29;;;;;;;2.47;2.13;;;;;;;18.35;56.81;96764.50;10536493;28;20039;-34
2023/05/30 02:08:29;;;;;;;2.50;2.30;;;;;;;18.30;56.54;96771.22;10536657;28;20032;-33
2023/05/30 02:13:32;;;;;;;3.23;2.20;;;;;;;18.22;56.88;96772.88;10532837;28;20028;-34
2023/05/30 02:18:36;;;;;;;3.03;2.13;;;;;;;18.17;56.96;96774.56;10529592;28;20111;-33
2023/05/30 02:23:37;;;;;;;2.38;2.05;;;;;;;18.16;56.68;96783.03;10533523;28;20047;-33
2023/05/30 02:28:38;;;;;;;2.42;2.08;;;;;;;18.07;57.04;96777.94;10536895;28;20031;-33
2023/05/30 02:33:39;;;;;;;2.63;2.30;;;;;;;18.13;56.97;96795.66;10529940;28;20031;-33
2023/05/30 02:38:39;;;;;;;3.72;2.47;;;;;;;18.05;56.69;96782.13;10529091;28;20668;-35
2023/05/30 02:43:40;;;;;;;3.95;2.38;;;;;;;18.13;56.70;96808.34;10535455;28;20032;-33
2023/05/30 02:48:42;;;;;;;2.78;2.15;;;;;;;18.12;56.71;96807.50;10527743;28;20085;-33
2023/05/30 02:53:42;;;;;;;3.27;2.50;;;;;;;18.40;56.57;96783.94;10536508;28;20036;-35
2023/05/30 02:58:42;;;;;;;4.93;2.90;;;;;;;18.50;55.78;96779.72;10534186;28;20027;-34
2023/05/30 03:04:01;;;;;;;3.15;2.50;;;;;;;18.46;56.25;96800.84;10533104;28;20414;-33
2023/05/30 03:09:13;;;;;;;3.22;2.40;;;;;;;18.33;56.21;96805.03;10531591;28;20066;-33
2023/05/30 03:14:15;;;;;;;2.97;2.35;;;;;;;18.26;56.44;96815.13;10531407;28;20078;-34
2023/05/30 03:19:17;;;;;;;3.08;2.22;;;;;;;18.17;56.64;96804.97;10530214;28;20028;-33
2023/05/30 03:24:18;;;;;;;3.03;2.47;;;;;;;18.16;56.46;96818.50;10525242;28;20024;-33
2023/05/30 03:29:19;;;;;;;4.22;3.08;;;;;;;18.14;56.75;96815.09;10532843;28;20024;-33
2023/05/30 03:34:21;;;;;;;3.08;2.55;;;;;;;18.15;56.40;96821.88;10531510;28;20554;-33
2023/05/30 03:39:22;;;;;;;2.90;2.10;;;;;;;18.13;56.44;96826.06;10525798;28;20039;-34
2023/05/30 03:44:22;;;;;;;3.33;2.37;;;;;;;18.12;56.47;96824.38;10535083;28;20096;-33
2023/05/30 03:49:23;;;;;;;2.75;2.45;;;;;;;18.10;56.41;96821.00;10532704;28;20035;-33
2023/05/30 03:54:23;;;;;;;3.80;2.37;;;;;;;18.35;56.50;96830.41;10533075;28;20047;-34
2023/05/30 03:59:23;;;;;;;2.80;2.40;;;;;;;18.55;56.13;96829.59;10531219;28;20032;-33
2023/05/30 04:04:24;;;;;;;2.80;2.40;;;;;;;18.41;56.35;96815.22;10532631;28;20101;-34
2023/05/30 04:09:24;;;;;;;3.07;2.37;;;;;;;18.26;56.09;96812.59;10529098;28;20402;-33
2023/05/30 04:14:24;;;;;;;3.27;2.83;;;;;;;18.27;56.02;96832.03;10529609;28;20290;-33
2023/05/30 04:19:25;;;;;;;3.73;2.67;;;;;;;18.21;56.39;96837.06;10533319;28;20296;-35
2023/05/30 04:24:29;;;;;;;3.95;2.40;;;;;;;18.17;56.26;96835.38;10530421;28;20040;-33
2023/05/30 04:29:29;;;;;;;3.10;2.20;;;;;;;18.17;56.12;96850.59;10531846;28;20106;-33
2023/05/30 04:34:30;;;;;;;3.23;2.40;;;;;;;18.14;56.30;96846.34;10525508;28;20405;-33
2023/05/30 04:39:30;;;;;;;2.60;2.20;;;;;;;18.08;56.00;96842.97;10531295;28;20433;-33
2023/05/30 04:44:37;;;;;;;3.00;2.28;;;;;;;18.12;56.23;96862.38;10530215;28;20032;-34
2023/05/30 04:49:39;;;;;;;2.38;2.15;;;;;;;18.13;56.47;96864.06;10527100;28;20046;-33
2023/05/30 04:54:41;;;;;;;3.20;2.55;;;;;;;18.29;56.37;96865.81;10522976;28;20116;-37
2023/05/30 04:59:42;;;;;;;3.05;2.75;;;;;;;18.51;55.65;96870.16;10528158;28;20035;-34
2023/05/30 05:04:42;;;;;;;3.08;2.60;;;;;;;18.53;55.79;96871.84;10539517;28;20047;-33
2023/05/30 05:09:43;;;;;;;2.80;2.42;;;;;;;18.37;56.26;96869.25;10531686;28;20452;-33
2023/05/30 05:14:43;;;;;;;3.33;2.65;;;;;;;18.26;55.89;96860.75;10540651;28;20032;-34
2023/05/30 05:19:43;;;;;;;3.53;2.57;;;;;;;18.24;56.09;96862.44;10534551;28;20904;-33
2023/05/30 05:24:44;;;;;;;3.72;2.83;;;;;;;18.20;56.13;96870.88;10535408;28;20406;-33
2023/05/30 05:29:45;;;;;;;3.60;2.40;;;;;;;18.19;55.98;96876.78;10540364;28;20040;-34
2023/05/30 05:34:45;;;;;;;3.40;2.60;;;;;;;18.15;56.04;96873.38;10532135;28;20526;-34
2023/05/30 05:39:46;;;;;;;3.28;2.47;;;;;;;18.18;55.93;96868.31;10539401;28;20464;-34
2023/05/30 05:44:46;;;;;;;2.90;2.43;;;;;;;18.12;56.31;96858.19;10539096;28;20036;-34
2023/05/30 05:49:46;;;;;;;4.37;2.27;;;;;;;18.15;56.10;96870.03;10539399;28;20396;-33
2023/05/30 05:54:47;;;;;;;3.30;2.53;;;;;;;18.20;56.05;96865.78;10538421;28;20490;-33
2023/05/30 05:59:47;;;;;;;3.30;2.47;;;;;;;18.46;56.34;96859.13;10538494;28;20027;-33
2023/05/30 06:04:47;;;;;;;3.50;2.83;;;;;;;18.55;55.95;96874.38;10530458;28;20047;-33
2023/05/30 06:09:48;;;;;;;2.80;2.50;;;;;;;18.41;56.53;96870.97;10537618;28;20028;-33
2023/05/30 06:14:48;;;;;;;2.47;2.07;;;;;;;18.33;56.08;96868.41;10536678;28;20093;-34
2023/05/30 06:19:52;;;;;;;3.97;2.93;;;;;;;18.28;56.05;96866.66;10529664;28;20041;-33
2023/05/30 06:24:52;;;;;;;2.97;2.40;;;;;;;18.23;55.97;96866.66;10537646;28;20274;-33
2023/05/30 06:29:53;;;;;;;3.13;2.60;;;;;;;18.23;56.05;96866.66;10536416;28;20028;-33
2023/05/30 06:34:53;;;;;;;2.28;2.00;;;;;;;18.23;55.98;96868.31;10533957;28;20483;-34
2023/05/30 06:39:53;;;;;;;3.20;2.10;;;;;;;18.23;56.01;96879.31;10537052;28;20032;-34
2023/05/30 06:44:54;;;;;;;2.97;2.60;;;;;;;18.13;56.13;96856.47;10534319;28;20047;-33
2023/05/30 06:49:54;;;;;;;3.15;1.80;;;;;;;18.22;56.15;96875.09;10536570;28;20047;-33
2023/05/30 06:54:55;;;;;;;2.87;2.30;;;;;;;18.26;56.31;96876.78;10535920;28;20040;-33
2023/05/30 06:59:55;;;;;;;3.85;2.40;;;;;;;18.51;56.72;96880.28;10536335;28;20059;-33
2023/05/30 07:04:55;;;;;;;2.80;2.50;;;;;;;18.66;56.00;96875.25;10532102;28;20040;-35
2023/05/30 07:09:56;;;;;;;3.70;2.57;;;;;;;18.54;56.26;96867.59;10530854;28;20278;-33
2023/05/30 07:14:56;;;;;;;2.58;2.22;;;;;;;18.45;56.52;96870.13;10535473;28;20486;-33
2023/05/30 07:19:57;;;;;;;2.63;2.13;;;;;;;18.41;56.38;96874.34;10531409;28;20105;-35
2023/05/30 07:24:57;;;;;;;2.20;2.00;;;;;;;18.41;56.69;96870.97;10534311;28;20663;-33
2023/05/30 07:29:58;;;;;;;2.37;2.00;;;;;;;18.39;56.74;96868.44;10533839;28;20032;-34
2023/05/30 07:34:58;;;;;;;2.28;1.90;;;;;;;18.39;56.69;96873.50;10534916;28;20286;-33
2023/05/30 07:40:05;;;;;;;2.27;2.07;;;;;;;18.38;56.60;96871.81;10529978;28;20030;-33
2023/05/30 07:45:05;;;;;;;;;;;;;;;18.38;56.82;96868.41;10535397;28;20383;-34
2023/05/30 07:50:07;;;;;;;2.65;1.98;;;;;;;18.34;56.90;96869.25;10530119;28;19916;-33
2023/05/30 07:55:08;;;;;;;2.00;1.80;;;;;;;18.33;56.83;96870.09;10531026;28;20035;-34
2023/05/30 08:00:08;;;;;;;2.47;2.13;;;;;;;18.57;58.00;96872.72;10533965;28;20046;-33
2023/05/30 08:05:11;;;;;;;2.45;1.98;;;;;;;18.72;58.14;96872.72;10528301;28;20036;-33
2023/05/30 08:10:12;;;;;;;3.20;2.50;;;;;;;18.66;57.40;96875.25;10532373;28;20036;-33
2023/05/30 08:15:12;;;;;;;2.17;1.98;;;;;;;18.55;57.86;96885.38;10533395;28;20328;-33
2023/05/30 08:20:13;;;;;;;2.27;1.80;;;;;;;18.45;57.66;96873.53;10532014;28;20425;-33
2023/05/30 08:25:13;;;;;;;2.90;2.03;;;;;;;18.41;57.53;96873.50;10533428;28;20369;-33
2023/05/30 08:30:13;;;;;;;2.38;1.92;;;;;;;18.42;57.44;96862.53;10531484;28;20028;-33
2023/05/30 08:35:14;;;;;;;2.00;1.80;;;;;;;18.44;57.48;96874.38;10533057;28;20039;-33
2023/05/30 08:40:15;;;;;;;2.10;1.90;;;;;;;18.39;57.69;96867.56;10524853;28;20031;-33
2023/05/30 08:45:16;;;;;;;2.03;1.83;;;;;;;18.44;57.55;96874.38;10533091;28;20119;-33
2023/05/30 08:50:20;;;;;;;1.73;1.63;;;;;;;18.44;57.71;96881.13;10525446;28;20110;-33
2023/05/30 08:55:34;;;;;;;1.70;1.60;;;;;;;18.43;57.64;96881.97;10528781;28;20024;-33
2023/05/30 09:00:36;;;;;;;1.90;1.60;;;;;;;18.58;58.67;96885.38;10530312;28;20111;-34
2023/05/30 09:05:38;;;;;;;3.35;1.90;;;;;;;18.74;58.30;96874.41;10525954;28;20043;-34
2023/05/30 09:10:48;;;;;;;1.58;1.48;;;;;;;18.71;57.88;96878.63;10532399;28;20032;-33
2023/05/30 09:15:50;;;;;;;1.98;1.80;;;;;;;18.58;58.42;96879.47;10526525;28;20036;-34
2023/05/30 09:20:50;;;;;;;1.80;1.70;;;;;;;18.53;58.30;96881.13;10528616;28;20032;-34
2023/05/30 09:25:51;;;;;;;1.80;1.60;;;;;;;18.51;57.62;96880.28;10531768;28;20032;-34
2023/05/30 09:30:55;;;;;;;1.55;1.40;;;;;;;18.49;57.95;96879.44;10530847;28;20788;-33
2023/05/30 09:35:57;;;;;;;1.42;1.33;;;;;;;18.43;58.16;96867.56;10523981;28;20040;-33
2023/05/30 09:41:02;;;;;;;1.58;1.38;;;;;;;18.48;58.03;96875.19;10528430;28;20034;-33
2023/05/30 09:46:06;;;;;;;1.48;1.38;;;;;;;18.48;57.88;96872.66;10533947;28;20032;-33
2023/05/30 09:51:06;;;;;;;1.85;1.75;;;;;;;18.47;58.05;96879.44;10532799;28;20402;-33
2023/05/30 09:56:07;;;;;;;2.20;1.83;;;;;;;18.44;58.23;96870.97;10531153;28;20046;-33
2023/05/30 10:01:15;;;;;;;1.83;1.60;;;;;;;18.58;59.11;96879.47;10538730;28;20028;-33
2023/05/30 10:06:16;;;;;;;1.40;1.25;;;;;;;18.74;58.27;96863.44;10531547;28;20340;-33
2023/05/30 10:11:20;;;;;;;1.48;1.23;;;;;;;18.72;58.41;96854.97;10538846;28;20024;-34
2023/05/30 10:16:20;;;;;;;1.80;1.50;;;;;;;18.64;58.59;96864.25;10537057;28;20092;-33
2023/05/30 10:21:22;;;;;;;1.60;1.48;;;;;;;18.57;58.73;96848.19;10531743;28;20110;-34
2023/05/30 10:26:30;;;;;;;1.67;1.42;;;;;;;18.52;58.61;96852.41;10537454;28;20494;-33
2023/05/30 10:31:31;;;;;;;1.55;1.45;;;;;;;18.52;58.50;96843.94;10536609;28;20058;-33
2023/05/30 10:36:34;;;;;;;1.65;1.52;;;;;;;18.49;58.48;96849.03;10536382;28;20035;-33
2023/05/30 10:41:56;;;;;;;1.85;1.65;;;;;;;18.50;58.43;96841.41;10537170;28;20513;-33
2023/05/30 10:47:13;;;;;;;1.83;1.45;;;;;;;18.46;58.41;96833.78;10525817;28;20036;-33
2023/05/30 10:52:17;;;;;;;1.60;1.45;;;;;;;18.49;58.48;96834.66;10537061;28;20036;-33
2023/05/30 10:57:31;;;;;;;1.73;1.55;;;;;;;18.50;58.41;96830.44;10532072;28;20486;-33
2023/05/30 11:02:38;;;;;;;1.63;1.35;;;;;;;18.61;59.37;96827.06;10536556;28;20519;-33
2023/05/30 11:07:40;;;;;;;1.55;1.45;;;;;;;18.77;58.94;96816.06;10535146;28;20117;-34
2023/05/30 11:12:43;;;;;;;1.70;1.40;;;;;;;18.77;58.36;96816.06;10510362;28;20526;-34
2023/05/30 11:17:44;;;;;;;1.50;1.40;;;;;;;18.65;58.93;96810.13;10533534;28;20414;-34
2023/05/30 11:23:02;;;;;;;1.65;1.55;;;;;;;18.59;59.12;96805.09;10534155;28;20048;-34
2023/05/30 11:28:03;;;;;;;1.95;1.55;;;;;;;18.55;58.83;96798.31;10535403;28;20482;-34
2023/05/30 11:33:08;;;;;;;1.40;1.30;;;;;;;18.53;58.71;96789.88;10533889;28;20038;-33
2023/05/30 11:38:09;;;;;;;1.47;1.37;;;;;;;18.45;58.60;96767.06;10533429;28;20460;-34
2023/05/30 11:43:09;;;;;;;1.30;1.20;;;;;;;18.50;58.56;96779.72;10531127;28;20035;-34
2023/05/30 11:48:10;;;;;;;1.17;1.03;;;;;;;18.45;58.82;96768.72;10534213;28;20042;-34
2023/05/30 11:53:14;;;;;;;1.40;1.30;;;;;;;18.50;58.66;96779.72;10528936;28;20297;-33
2023/05/30 11:58:16;;;;;;;2.47;1.55;;;;;;;18.47;58.54;96755.22;10533820;28;20058;-34
2023/05/30 12:03:16;;;;;;;1.40;1.30;;;;;;;18.57;59.94;96751.84;10528452;28;20036;-33
2023/05/30 12:08:17;;;;;;;1.15;1.05;;;;;;;18.78;59.24;96756.91;10532522;28;20028;-33
2023/05/30 12:13:20;;;;;;;1.33;1.23;;;;;;;18.79;58.53;96748.44;10533428;28;20173;-33
2023/05/30 12:18:21;;;;;;;3.00;1.30;;;;;;;18.67;59.14;96745.06;10531814;28;20028;-34
2023/05/30 12:23:24;;;;;;;1.13;1.03;;;;;;;18.57;59.19;96746.75;10532231;28;20040;-34
2023/05/30 12:28:25;;;;;;;1.35;1.23;;;;;;;18.57;59.23;96739.16;10533028;28;20868;-34
2023/05/30 12:33:27;;;;;;;1.53;1.20;;;;;;;18.56;59.25;96751.81;10527195;28;20040;-33
2023/05/30 12:38:27;;;;;;;1.30;1.20;;;;;;;18.54;58.99;96745.91;10531086;28;20309;-33
2023/05/30 12:43:28;;;;;;;1.37;1.27;;;;;;;18.55;59.02;96742.53;10528283;28;20043;-33
2023/05/30 12:48:29;;;;;;;1.50;1.35;;;;;;;18.54;59.19;96749.31;10531241;28;20296;-33
2023/05/30 12:53:30;;;;;;;1.20;1.10;;;;;;;18.54;59.11;96740.84;10532821;28;20039;-33
2023/05/30 12:58:30;;;;;;;0.93;0.93;;;;;;;18.53;58.76;96742.56;10531000;28;20379;-34
2023/05/30 13:03:31;;;;;;;1.33;1.23;;;;;;;18.56;60.43;96729.00;10532743;28;20524;-33
2023/05/30 13:08:31;;;;;;;1.40;1.20;;;;;;;18.78;59.85;96735.75;10524942;28;20036;-34
2023/05/30 13:13:32;;;;;;;1.10;1.00;;;;;;;18.75;58.81;96725.63;10531988;28;20028;-33
2023/05/30 13:18:32;;;;;;;1.20;1.10;;;;;;;18.67;59.33;96732.41;10526715;28;20029;-34
2023/05/30 13:23:32;;;;;;;1.83;1.47;;;;;;;18.62;59.42;96729.00;10535153;28;20282;-33
2023/05/30 13:28:33;;;;;;;1.47;1.37;;;;;;;18.56;59.65;96723.94;10532971;28;20035;-33
2023/05/30 13:33:33;;;;;;;1.27;1.17;;;;;;;18.56;59.26;96729.84;10540092;28;20110;-34
2023/05/30 13:38:33;;;;;;;1.30;1.20;;;;;;;18.49;59.49;96705.34;10532997;28;20448;-33
2023/05/30 13:43:34;;;;;;;1.27;1.17;;;;;;;18.56;59.21;96713.78;10539504;28;20070;-33
2023/05/30 13:48:35;;;;;;;1.27;1.13;;;;;;;18.55;59.06;96718.03;10538380;28;20035;-34
2023/05/30 13:53:36;;;;;;;1.25;1.15;;;;;;;18.54;59.38;96705.34;10534637;28;20823;-35
2023/05/30 13:58:36;;;;;;;1.30;1.08;;;;;;;18.54;59.17;96726.50;10534575;28;20101;-33
2023/05/30 14:03:36;;;;;;;1.27;1.03;;;;;;;18.65;60.13;96721.38;10531106;28;20047;-33
2023/05/30 14:08:37;;;;;;;1.27;1.00;;;;;;;18.81;59.66;96706.16;10538801;28;20142;-33
2023/05/30 14:13:39;;;;;;;1.30;1.00;;;;;;;18.85;58.76;96707.84;10532996;28;20058;-33
2023/05/30 14:18:44;;;;;;;1.40;1.30;;;;;;;18.71;59.41;96708.72;10538136;28;20024;-33
2023/05/30 14:23:45;;;;;;;1.30;1.02;;;;;;;18.64;59.59;96702.81;10529389;28;20029;-34
2023/05/30 14:28:47;;;;;;;1.10;1.00;;;;;;;18.60;59.67;96707.88;10537836;28;20036;-33
2023/05/30 14:33:47;;;;;;;1.20;1.10;;;;;;;18.53;59.29;96683.38;10529659;28;20282;-33
2023/05/30 14:38:47;;;;;;;1.00;0.90;;;;;;;18.56;59.00;96699.44;10536898;28;20577;-33
2023/05/30 14:43:48;;;;;;;1.15;1.05;;;;;;;18.51;59.39;96696.03;10529464;28;20488;-33
2023/05/30 14:48:48;;;;;;;1.02;0.93;;;;;;;18.52;59.42;96709.59;10535376;28;20079;-34
2023/05/30 14:53:50;;;;;;;1.40;1.30;;;;;;;18.56;59.16;96713.78;10536782;28;20554;-34
2023/05/30 14:58:50;;;;;;;1.10;1.00;;;;;;;18.55;58.66;96717.16;10528709;28;20286;-33
2023/05/30 15:03:51;;;;;;;1.03;0.93;;;;;;;18.62;60.66;96713.78;10536241;28;20520;-34
2023/05/30 15:08:51;;;;;;;1.33;1.20;;;;;;;18.80;59.86;96698.56;10528095;28;20381;-34
2023/05/30 15:13:52;;;;;;;1.40;1.23;;;;;;;18.87;58.61;96702.78;10533844;28;20401;-33
2023/05/30 15:18:52;;;;;;;1.30;1.20;;;;;;;18.68;59.66;96701.94;10533279;28;20525;-34
2023/05/30 15:23:53;;;;;;;1.10;0.90;;;;;;;18.67;59.96;96696.91;10531626;28;20406;-33
2023/05/30 15:28:56;;;;;;;0.70;0.70;;;;;;;18.63;60.28;96711.28;10532685;28;20047;-34
2023/05/30 15:33:57;;;;;;;1.30;1.20;;;;;;;18.61;59.70;96714.66;10528963;28;20304;-33
2023/05/30 15:38:57;;;;;;;1.02;0.93;;;;;;;18.60;59.71;96712.97;10533290;28;20038;-34
2023/05/30 15:44:01;;;;;;;1.35;1.25;;;;;;;18.59;59.61;96701.13;10532754;28;20038;-34
2023/05/30 15:49:01;;;;;;;1.15;1.05;;;;;;;18.57;59.18;96697.75;10531093;28;20020;-33
2023/05/30 15:54:02;;;;;;;1.30;1.10;;;;;;;18.57;59.29;96690.16;10533040;28;20093;-33
2023/05/30 15:59:02;;;;;;;1.40;1.30;;;;;;;18.56;59.42;96689.28;10533326;28;20032;-34
2023/05/30 16:04:02;;;;;;;0.90;0.90;;;;;;;18.60;62.50;96685.91;10533551;28;20043;-33
2023/05/30 16:09:03;;;;;;;1.10;1.00;;;;;;;18.82;60.01;96699.41;10532589;28;20028;-33
2023/05/30 16:14:05;;;;;;;1.15;1.05;;;;;;;18.88;58.77;96691.78;10532885;28;20113;-34
2023/05/30 16:19:05;;;;;;;0.82;0.82;;;;;;;18.74;59.55;96683.38;10533573;28;20020;-33
2023/05/30 16:24:05;;;;;;;0.90;0.87;;;;;;;18.67;59.86;96682.50;10532321;28;20051;-33
2023/05/30 16:29:06;;;;;;;0.70;0.67;;;;;;;18.61;59.79;96671.53;10533009;28;20043;-33
2023/05/30 16:34:06;;;;;;;1.23;1.13;;;;;;;18.60;59.37;96674.94;10532036;28;20028;-33
2023/05/30 16:39:09;;;;;;;1.10;1.00;;;;;;;18.57;59.20;96685.91;10526660;28;20055;-34
2023/05/30 16:44:09;;;;;;;1.17;1.00;;;;;;;18.58;59.33;96674.09;10532437;28;20034;-33
2023/05/30 16:49:10;;;;;;;1.55;1.13;;;;;;;18.60;59.68;96685.06;10531718;28;20028;-33
2023/05/30 16:54:13;;;;;;;1.10;1.00;;;;;;;18.58;59.18;96692.66;10534674;28;20051;-33
2023/05/30 16:59:13;;;;;;;1.30;0.90;;;;;;;18.57;58.89;96690.16;10539973;28;20111;-33
2023/05/30 17:04:13;;;;;;;1.13;1.03;;;;;;;18.57;61.91;96693.50;10541109;28;20061;-33
2023/05/30 17:09:14;;;;;;;1.10;1.00;;;;;;;18.76;59.60;96692.63;10531993;28;20043;-33
2023/05/30 17:14:15;;;;;;;0.60;0.60;;;;;;;18.86;58.62;96699.41;10541117;28;20028;-33
2023/05/30 17:19:15;;;;;;;1.17;1.08;;;;;;;18.70;59.83;96691.81;10525297;28;20043;-35
2023/05/30 17:24:16;;;;;;;0.77;0.73;;;;;;;18.67;59.79;96696.91;10540535;28;20048;-35
2023/05/30 17:29:18;;;;;;;1.20;1.00;;;;;;;18.63;59.63;96695.19;10533075;28;20023;-36
2023/05/30 17:34:21;;;;;;;1.67;1.23;;;;;;;18.62;59.69;96699.44;10539090;28;20043;-34
2023/05/30 17:39:23;;;;;;;1.15;1.05;;;;;;;18.59;59.37;96708.75;10539466;28;20032;-34
2023/05/30 17:44:23;;;;;;;1.08;0.85;;;;;;;18.57;59.82;96702.84;10538195;28;20036;-33
2023/05/30 17:49:23;;;;;;;1.17;1.07;;;;;;;18.57;58.92;96700.28;10539415;28;20111;-35
2023/05/30 17:54:24;;;;;;;1.43;1.27;;;;;;;18.57;58.94;96712.97;10530341;28;20402;-33
2023/05/30 17:59:24;;;;;;;0.90;0.90;;;;;;;18.57;59.03;96715.50;10538907;28;20028;-33
2023/05/30 18:04:25;;;;;;;1.17;1.07;;;;;;;18.62;61.55;96714.66;10536220;28;20490;-33
2023/05/30 18:09:25;;;;;;;1.00;0.87;;;;;;;18.80;60.17;96714.63;10537378;28;20309;-33
2023/05/30 18:14:26;;;;;;;0.93;0.90;;;;;;;18.89;58.95;96728.97;10537325;28;20045;-34
2023/05/30 18:19:26;;;;;;;1.10;1.00;;;;;;;18.76;59.85;96742.53;10537858;28;20168;-34
2023/05/30 18:24:27;;;;;;;1.10;0.82;;;;;;;18.68;60.02;96744.22;10536911;28;20055;-34
2023/05/30 18:29:28;;;;;;;1.58;1.25;;;;;;;18.63;59.82;96751.84;10538118;28;20028;-34
2023/05/30 18:34:29;;;;;;;1.10;1.00;;;;;;;18.59;59.30;96745.06;10530564;28;20035;-33
2023/05/30 18:39:29;;;;;;;1.00;0.98;;;;;;;18.60;59.31;96761.13;10530853;28;20478;-33
2023/05/30 18:44:32;;;;;;;1.00;0.90;;;;;;;18.59;59.05;96759.44;10538027;28;20040;-31
2023/05/30 18:49:32;;;;;;;0.88;0.80;;;;;;;18.56;59.05;96759.44;10534033;28;20544;-30
2023/05/30 18:54:33;;;;;;;1.00;0.80;;;;;;;18.56;59.01;96764.50;10537651;28;20039;-30
2023/05/30 18:59:37;;;;;;;1.15;1.05;;;;;;;18.56;58.78;96777.19;10530770;28;20090;-31
2023/05/30 19:04:37;;;;;;;0.70;0.70;;;;;;;18.64;61.44;96780.56;10537214;28;20043;-31
2023/05/30 19:09:39;;;;;;;1.13;0.93;;;;;;;18.77;59.63;96779.72;10535290;28;20028;-32
2023/05/30 19:14:40;;;;;;;1.13;0.82;;;;;;;18.85;59.12;96793.25;10536621;28;20277;-33
2023/05/30 19:19:41;;;;;;;0.80;0.80;;;;;;;18.72;59.69;96786.47;10529909;28;20020;-31
2023/05/30 19:24:41;;;;;;;0.70;0.67;;;;;;;18.64;59.67;96795.78;10533779;28;20421;-34
2023/05/30 19:29:41;;;;;;;1.00;0.90;;;;;;;18.62;59.36;96789.88;10530791;28;20036;-32
2023/05/30 19:34:42;;;;;;;1.07;1.00;;;;;;;18.59;59.10;96800.00;10534855;28;20409;-33
2023/05/30 19:39:42;;;;;;;1.07;0.80;;;;;;;18.51;58.93;96792.38;10536091;28;20290;-33
2023/05/30 19:44:43;;;;;;;1.10;0.97;;;;;;;18.57;59.02;96811.84;10534545;28;20044;-33
2023/05/30 19:49:43;;;;;;;0.68;0.68;;;;;;;18.56;58.85;96805.94;10535003;28;20659;-32
2023/05/30 19:54:44;;;;;;;0.80;0.77;;;;;;;18.53;58.75;96807.59;10532755;28;20036;-33
2023/05/30 19:59:45;;;;;;;1.15;1.05;;;;;;;18.55;58.72;96818.59;10533899;28;20053;-34
2023/05/30 20:04:45;;;;;;;0.80;0.80;;;;;;;18.68;59.60;96822.84;10529731;28;20050;-33
2023/05/30 20:09:45;;;;;;;0.67;0.67;;;;;;;18.86;59.17;96816.09;10530709;28;20489;-33
2023/05/30 20:14:46;;;;;;;0.63;0.57;;;;;;;18.87;58.93;96822.00;10528585;28;20039;-33
2023/05/30 20:19:46;;;;;;;1.00;0.80;;;;;;;18.70;59.35;96816.06;10532795;28;20138;-33
2023/05/30 20:24:47;;;;;;;0.80;0.73;;;;;;;18.66;59.47;96827.06;10533294;28;20036;-33
2023/05/30 20:29:47;;;;;;;0.70;0.70;;;;;;;18.56;59.34;96810.13;10531729;28;20028;-33
2023/05/30 20:34:48;;;;;;;0.60;0.60;;;;;;;18.59;58.87;96820.31;10533013;28;20028;-32
2023/05/30 20:39:48;;;;;;;0.80;0.70;;;;;;;18.59;59.13;96825.38;10531844;28;20028;-32
2023/05/30 20:44:49;;;;;;;1.33;0.80;;;;;;;18.57;58.72;96824.53;10532326;28;20048;-33
2023/05/30 20:49:50;;;;;;;0.85;0.80;;;;;;;18.50;58.74;96817.75;10528009;28;20475;-33
2023/05/30 20:54:50;;;;;;;1.13;0.90;;;;;;;18.57;58.70;96829.59;10524853;28;20093;-33
2023/05/30 20:59:52;;;;;;;0.80;0.80;;;;;;;18.52;58.85;96819.47;10532252;28;20297;-33
2023/05/30 21:04:52;;;;;;;0.73;0.73;;;;;;;18.66;59.55;96822.84;10529794;28;20454;-33
2023/05/30 21:09:52;;;;;;;0.60;0.60;;;;;;;18.85;59.31;96818.63;10529581;28;20031;-33
2023/05/30 21:14:53;;;;;;;1.20;1.10;;;;;;;18.88;58.76;96823.69;10532644;28;20794;-33
2023/05/30 21:19:53;;;;;;;0.77;0.77;;;;;;;18.72;59.58;96817.78;10524303;28;20475;-33
2023/05/30 21:24:53;;;;;;;1.03;0.70;;;;;;;18.65;59.36;96812.69;10531990;28;20039;-33
2023/05/30 21:29:54;;;;;;;0.70;0.70;;;;;;;18.62;59.19;96810.16;10523195;28;20039;-33
2023/05/30 21:34:54;;;;;;;0.60;0.60;;;;;;;18.60;58.93;96809.31;10531260;28;20285;-32
2023/05/30 21:39:54;;;;;;;0.73;0.73;;;;;;;18.57;58.83;96815.22;10527405;28;20029;-33
2023/05/30 21:44:55;;;;;;;0.83;0.80;;;;;;;18.53;58.54;96805.06;10534989;28;20031;-33
2023/05/30 21:49:57;;;;;;;1.10;1.00;;;;;;;18.51;58.45;96814.38;10539446;28;20529;-33
2023/05/30 21:54:58;;;;;;;0.90;0.73;;;;;;;18.43;58.37;96813.50;10538121;28;20513;-33
2023/05/30 21:59:58;;;;;;;0.87;0.80;;;;;;;18.45;58.16;96816.91;10538876;28;20439;-32
2023/05/30 22:04:58;;;;;;;1.40;0.80;;;;;;;18.58;59.80;96818.63;10531571;28;20032;-33
2023/05/30 22:09:59;;;;;;;0.73;0.73;;;;;;;18.75;58.23;96822.00;10530679;28;20038;-33
2023/05/30 22:15:01;;;;;;;0.90;0.80;;;;;;;18.80;58.27;96820.31;10538286;28;20046;-32
2023/05/30 22:20:01;;;;;;;1.00;0.65;;;;;;;18.62;58.57;96825.38;10537065;28;20028;-33
2023/05/30 22:25:02;;;;;;;0.80;0.80;;;;;;;18.48;57.78;96814.34;10537911;28;20406;-33
2023/05/30 22:30:03;;;;;;;1.00;0.90;;;;;;;18.49;57.72;96816.91;10532590;28;20124;-34
2023/05/30 22:35:04;;;;;;;1.17;1.08;;;;;;;18.46;57.77;96809.31;10537737;28;20114;-33
2023/05/30 22:40:05;;;;;;;1.10;1.00;;;;;;;18.41;57.69;96797.47;10535885;28;20024;-34
2023/05/30 22:45:06;;;;;;;0.73;0.70;;;;;;;18.44;57.63;96800.00;10535456;28;20024;-33
2023/05/30 22:50:07;;;;;;;0.80;0.80;;;;;;;18.41;57.56;96794.94;10536939;28;20550;-32
2023/05/30 22:55:08;;;;;;;1.35;0.90;;;;;;;18.40;57.61;96793.25;10533749;28;20063;-33
2023/05/30 23:00:09;;;;;;;1.40;1.08;;;;;;;18.38;57.48;96789.84;10536476;28;20486;-32
2023/05/30 23:05:10;;;;;;;1.27;0.98;;;;;;;18.49;57.91;96783.13;10528617;28;20036;-32
2023/05/30 23:10:10;;;;;;;1.20;1.10;;;;;;;18.71;57.49;96769.56;10535205;28;20039;-33
2023/05/30 23:15:10;;;;;;;0.90;0.90;;;;;;;18.75;57.21;96776.34;10535783;28;20039;-32
2023/05/30 23:20:11;;;;;;;1.73;0.93;;;;;;;18.59;57.57;96772.13;10531007;28;20070;-34